sensor_id;sensor_type;location;lat;lon;timestamp;temperature;humidity
3794;DHT22;1912;51.358;12.282;2023-04-01T03:45:27;8.80;1.00
3794;DHT22;1912;51.358;12.282;2023-04-01T03:47:52;8.80;1.00
3794;DHT22;1912;51.358;12.282;2023-04-01T03:50:19;8.80;1.00
3794;DHT22;1912;51.358;12.282;2023-04-01T03:52:44;8.80;1.00
3794;DHT22;1912;51.358;12.282;2023-04-01T03:55:10;8.80;1.00
3794;DHT22;1912;51.358;12.282;2023-04-01T03:57:36;8.80;1.00
3794;DHT22;1912;51.358;12.282;2023-04-01T04:00:02;8.70;1.00
3794;DHT22;1912;51.358;12.282;2023-04-01T04:02:28;8.80;1.00
3794;DHT22;1912;51.358;12.282;2023-04-01T04:04:54;8.70;1.00
3794;DHT22;1912;51.358;12.282;2023-04-01T04:07:20;8.80;1.00
3794;DHT22;1912;51.358;12.282;2023-04-01T04:09:45;8.70;1.00
3794;DHT22;1912;51.358;12.282;2023-04-01T04:12:11;8.70;1.00
3794;DHT22;1912;51.358;12.282;2023-04-01T04:14:37;8.70;1.00
3794;DHT22;1912;51.358;12.282;2023-04-01T04:17:02;8.70;1.00
3794;DHT22;1912;51.358;12.282;2023-04-01T04:19:32;8.70;1.00
3794;DHT22;1912;51.358;12.282;2023-04-01T04:21:59;8.70;1.00
3794;DHT22;1912;51.358;12.282;2023-04-01T04:24:26;8.70;1.00
3794;DHT22;1912;51.358;12.282;2023-04-01T04:26:52;8.70;1.00
3794;DHT22;1912;51.358;12.282;2023-04-01T04:29:18;8.60;1.00
3794;DHT22;1912;51.358;12.282;2023-04-01T04:31:44;8.70;1.00
3794;DHT22;1912;51.358;12.282;2023-04-01T04:34:09;8.60;1.00
3794;DHT22;1912;51.358;12.282;2023-04-01T04:36:35;8.60;1.00
3794;DHT22;1912;51.358;12.282;2023-04-01T04:39:01;8.60;1.00
3794;DHT22;1912;51.358;12.282;2023-04-01T04:41:28;8.60;1.00
3794;DHT22;1912;51.358;12.282;2023-04-01T04:43:55;8.60;1.00
3794;DHT22;1912;51.358;12.282;2023-04-01T04:46:22;8.60;1.00
3794;DHT22;1912;51.358;12.282;2023-04-01T04:48:47;8.60;1.00
3794;DHT22;1912;51.358;12.282;2023-04-01T04:51:18;8.60;1.00
3794;DHT22;1912;51.358;12.282;2023-04-01T04:53:46;8.50;1.00
3794;DHT22;1912;51.358;12.282;2023-04-01T04:56:12;8.50;1.00
3794;DHT22;1912;51.358;12.282;2023-04-01T04:58:38;8.50;1.00
3794;DHT22;1912;51.358;12.282;2023-04-01T05:01:12;8.60;1.00
3794;DHT22;1912;51.358;12.282;2023-04-01T05:03:39;8.60;1.00
3794;DHT22;1912;51.358;12.282;2023-04-01T05:06:06;8.60;1.00
3794;DHT22;1912;51.358;12.282;2023-04-01T05:08:33;8.70;1.00
3794;DHT22;1912;51.358;12.282;2023-04-01T05:10:59;8.70;1.00
3794;DHT22;1912;51.358;12.282;2023-04-01T05:13:26;8.70;1.00
3794;DHT22;1912;51.358;12.282;2023-04-01T05:15:52;8.70;1.00
3794;DHT22;1912;51.358;12.282;2023-04-01T05:18:18;8.70;1.00
3794;DHT22;1912;51.358;12.282;2023-04-01T05:20:51;8.70;1.00
3794;DHT22;1912;51.358;12.282;2023-04-01T05:23:19;8.80;1.00
3794;DHT22;1912;51.358;12.282;2023-04-01T05:25:49;8.80;1.00
3794;DHT22;1912;51.358;12.282;2023-04-01T05:28:16;8.80;1.00
3794;DHT22;1912;51.358;12.282;2023-04-01T05:30:43;8.80;1.00
3794;DHT22;1912;51.358;12.282;2023-04-01T05:33:10;8.80;1.00
3794;DHT22;1912;51.358;12.282;2023-04-01T05:35:37;8.90;1.00
3794;DHT22;1912;51.358;12.282;2023-04-01T05:38:03;8.90;1.00
3794;DHT22;1912;51.358;12.282;2023-04-01T05:40:29;8.90;1.00
3794;DHT22;1912;51.358;12.282;2023-04-01T05:42:55;8.90;1.00
3794;DHT22;1912;51.358;12.282;2023-04-01T05:45:22;8.90;1.00
3794;DHT22;1912;51.358;12.282;2023-04-01T05:47:47;9.00;1.00
3794;DHT22;1912;51.358;12.282;2023-04-01T05:50:13;9.00;1.00
3794;DHT22;1912;51.358;12.282;2023-04-01T05:52:39;8.90;1.00
3794;DHT22;1912;51.358;12.282;2023-04-01T05:55:05;9.00;1.00
3794;DHT22;1912;51.358;12.282;2023-04-01T05:57:31;9.00;1.00
3794;DHT22;1912;51.358;12.282;2023-04-01T05:59:57;9.10;1.00
3794;DHT22;1912;51.358;12.282;2023-04-01T06:02:23;9.00;1.00
3794;DHT22;1912;51.358;12.282;2023-04-01T06:04:49;9.10;1.00
3794;DHT22;1912;51.358;12.282;2023-04-01T06:07:16;9.10;1.00
3794;DHT22;1912;51.358;12.282;2023-04-01T06:09:44;9.10;1.00
3794;DHT22;1912;51.358;12.282;2023-04-01T06:12:35;9.10;1.00
3794;DHT22;1912;51.358;12.282;2023-04-01T06:18:38;9.20;1.00
3794;DHT22;1912;51.358;12.282;2023-04-01T06:21:37;9.20;1.00
3794;DHT22;1912;51.358;12.282;2023-04-01T06:28:05;9.20;1.00
3794;DHT22;1912;51.358;12.282;2023-04-01T06:31:18;9.30;1.00
3794;DHT22;1912;51.358;12.282;2023-04-01T06:46:00;9.50;1.00
3794;DHT22;1912;51.358;12.282;2023-04-01T06:48:46;9.50;1.00
3794;DHT22;1912;51.358;12.282;2023-04-01T06:51:41;9.50;1.00
3794;DHT22;1912;51.358;12.282;2023-04-01T06:54:18;9.60;1.00
3794;DHT22;1912;51.358;12.282;2023-04-01T06:56:50;9.60;1.00
3794;DHT22;1912;51.358;12.282;2023-04-01T06:59:25;9.60;1.00
3794;DHT22;1912;51.358;12.282;2023-04-01T07:01:54;9.70;1.00
3794;DHT22;1912;51.358;12.282;2023-04-01T07:04:34;9.70;1.00
3794;DHT22;1912;51.358;12.282;2023-04-01T07:10:21;9.80;1.00
3794;DHT22;1912;51.358;12.282;2023-04-01T07:12:54;9.90;1.00
3794;DHT22;1912;51.358;12.282;2023-04-01T07:15:25;10.00;1.00
3794;DHT22;1912;51.358;12.282;2023-04-01T07:18:02;10.10;1.00
3794;DHT22;1912;51.358;12.282;2023-04-01T07:20:32;10.10;1.00
3794;DHT22;1912;51.358;12.282;2023-04-01T07:23:03;10.10;1.00
3794;DHT22;1912;51.358;12.282;2023-04-01T07:25:37;10.20;1.00
3794;DHT22;1912;51.358;12.282;2023-04-01T07:28:13;10.20;1.00
3794;DHT22;1912;51.358;12.282;2023-04-01T07:30:49;10.20;1.00
3794;DHT22;1912;51.358;12.282;2023-04-01T07:33:43;10.30;1.00
3794;DHT22;1912;51.358;12.282;2023-04-01T07:36:33;10.30;1.00
3794;DHT22;1912;51.358;12.282;2023-04-01T07:48:16;10.50;1.00
3794;DHT22;1912;51.358;12.282;2023-04-01T07:51:21;10.50;1.00
3794;DHT22;1912;51.358;12.282;2023-04-01T07:54:18;10.50;1.00
3794;DHT22;1912;51.358;12.282;2023-04-01T07:59:58;10.50;1.00
3794;DHT22;1912;51.358;12.282;2023-04-01T08:05:28;10.40;1.00
3794;DHT22;1912;51.358;12.282;2023-04-01T08:13:53;10.60;1.00
3794;DHT22;1912;51.358;12.282;2023-04-01T08:16:41;10.70;1.00
3794;DHT22;1912;51.358;12.282;2023-04-01T08:19:35;10.80;1.00
3794;DHT22;1912;51.358;12.282;2023-04-01T08:22:32;10.80;1.00
3794;DHT22;1912;51.358;12.282;2023-04-01T08:25:02;10.80;1.00
3794;DHT22;1912;51.358;12.282;2023-04-01T08:27:44;10.80;1.00
3794;DHT22;1912;51.358;12.282;2023-04-01T08:30:37;10.80;1.00
3794;DHT22;1912;51.358;12.282;2023-04-01T08:33:21;10.90;1.00
3794;DHT22;1912;51.358;12.282;2023-04-01T08:39:04;11.00;1.00
3794;DHT22;1912;51.358;12.282;2023-04-01T08:41:42;11.00;1.00
3794;DHT22;1912;51.358;12.282;2023-04-01T08:44:51;11.00;1.00
3794;DHT22;1912;51.358;12.282;2023-04-01T08:48:05;11.10;1.00
3794;DHT22;1912;51.358;12.282;2023-04-01T08:50:53;11.10;1.00
3794;DHT22;1912;51.358;12.282;2023-04-01T08:53:54;11.00;1.00
3794;DHT22;1912;51.358;12.282;2023-04-01T08:56:42;11.10;1.00
3794;DHT22;1912;51.358;12.282;2023-04-01T09:11:49;11.20;1.00
3794;DHT22;1912;51.358;12.282;2023-04-01T09:18:07;11.40;1.00
3794;DHT22;1912;51.358;12.282;2023-04-01T09:27:11;11.50;1.00
3794;DHT22;1912;51.358;12.282;2023-04-01T09:33:48;11.50;1.00
3794;DHT22;1912;51.358;12.282;2023-04-01T09:36:50;11.60;1.00
3794;DHT22;1912;51.358;12.282;2023-04-01T09:45:23;11.60;1.00
3794;DHT22;1912;51.358;12.282;2023-04-01T09:48:21;11.60;1.00
3794;DHT22;1912;51.358;12.282;2023-04-01T09:57:18;11.60;1.00
3794;DHT22;1912;51.358;12.282;2023-04-01T10:09:12;11.60;1.00
3794;DHT22;1912;51.358;12.282;2023-04-01T10:12:17;11.50;1.00
3794;DHT22;1912;51.358;12.282;2023-04-01T10:18:17;11.50;1.00
3794;DHT22;1912;51.358;12.282;2023-04-01T10:21:13;11.50;1.00
3794;DHT22;1912;51.358;12.282;2023-04-01T10:30:18;11.40;1.00
3794;DHT22;1912;51.358;12.282;2023-04-01T10:33:36;11.40;1.00
3794;DHT22;1912;51.358;12.282;2023-04-01T10:36:21;11.30;1.00
3794;DHT22;1912;51.358;12.282;2023-04-01T10:42:27;11.30;1.00
3794;DHT22;1912;51.358;12.282;2023-04-01T10:48:37;11.20;1.00
3794;DHT22;1912;51.358;12.282;2023-04-01T10:51:25;11.20;1.00
3794;DHT22;1912;51.358;12.282;2023-04-01T11:00:44;11.30;1.00
3794;DHT22;1912;51.358;12.282;2023-04-01T11:10:09;11.40;1.00
3794;DHT22;1912;51.358;12.282;2023-04-01T11:22:32;11.70;1.00
3794;DHT22;1912;51.358;12.282;2023-04-01T11:31:24;12.20;1.00
3794;DHT22;1912;51.358;12.282;2023-04-01T11:40:29;12.30;1.00
3794;DHT22;1912;51.358;12.282;2023-04-01T11:43:02;12.10;1.00
3794;DHT22;1912;51.358;12.282;2023-04-01T11:45:49;12.00;1.00
3794;DHT22;1912;51.358;12.282;2023-04-01T11:51:31;12.10;1.00
3794;DHT22;1912;51.358;12.282;2023-04-01T11:54:56;12.00;1.00
3794;DHT22;1912;51.358;12.282;2023-04-01T12:00:57;11.60;1.00
3794;DHT22;1912;51.358;12.282;2023-04-01T12:12:42;11.50;1.00
3794;DHT22;1912;51.358;12.282;2023-04-01T12:15:30;11.60;1.00
3794;DHT22;1912;51.358;12.282;2023-04-01T12:18:48;11.70;1.00
3794;DHT22;1912;51.358;12.282;2023-04-01T12:24:45;11.80;1.00
3794;DHT22;1912;51.358;12.282;2023-04-01T12:36:25;12.00;1.00
3794;DHT22;1912;51.358;12.282;2023-04-01T12:42:07;12.00;1.00
3794;DHT22;1912;51.358;12.282;2023-04-01T12:48:33;11.90;1.00
3794;DHT22;1912;51.358;12.282;2023-04-01T12:54:23;11.80;1.00
3794;DHT22;1912;51.358;12.282;2023-04-01T13:00:29;11.70;1.00
3794;DHT22;1912;51.358;12.282;2023-04-01T13:12:19;11.50;1.00
3794;DHT22;1912;51.358;12.282;2023-04-01T13:15:41;11.50;1.00
3794;DHT22;1912;51.358;12.282;2023-04-01T13:38:22;11.10;1.00
3794;DHT22;1912;51.358;12.282;2023-04-01T13:44:20;10.90;1.00
3794;DHT22;1912;51.358;12.282;2023-04-01T13:49:53;10.90;1.00
3794;DHT22;1912;51.358;12.282;2023-04-01T13:52:46;10.90;1.00
3794;DHT22;1912;51.358;12.282;2023-04-01T14:11:35;11.20;1.00
3794;DHT22;1912;51.358;12.282;2023-04-01T14:17:26;11.30;1.00
3794;DHT22;1912;51.358;12.282;2023-04-01T14:20:20;11.30;1.00
3794;DHT22;1912;51.358;12.282;2023-04-01T14:29:20;11.50;1.00
3794;DHT22;1912;51.358;12.282;2023-04-01T14:32:26;11.50;1.00
3794;DHT22;1912;51.358;12.282;2023-04-01T14:35:09;11.50;1.00
3794;DHT22;1912;51.358;12.282;2023-04-01T14:37:55;11.60;1.00
3794;DHT22;1912;51.358;12.282;2023-04-01T14:52:32;11.60;1.00
3794;DHT22;1912;51.358;12.282;2023-04-01T14:58:07;11.60;1.00
3794;DHT22;1912;51.358;12.282;2023-04-01T15:03:59;11.60;1.00
3794;DHT22;1912;51.358;12.282;2023-04-01T15:10:03;11.60;1.00
3794;DHT22;1912;51.358;12.282;2023-04-01T15:12:42;11.60;1.00
3794;DHT22;1912;51.358;12.282;2023-04-01T15:18:18;11.50;1.00
3794;DHT22;1912;51.358;12.282;2023-04-01T15:24:02;11.50;1.00
3794;DHT22;1912;51.358;12.282;2023-04-01T15:29:35;11.30;1.00
3794;DHT22;1912;51.358;12.282;2023-04-01T15:32:49;11.40;1.00
3794;DHT22;1912;51.358;12.282;2023-04-01T15:38:52;11.40;1.00
3794;DHT22;1912;51.358;12.282;2023-04-01T15:41:34;11.40;1.00
3794;DHT22;1912;51.358;12.282;2023-04-01T15:44:04;11.40;1.00
3794;DHT22;1912;51.358;12.282;2023-04-01T15:47:01;11.20;1.00
3794;DHT22;1912;51.358;12.282;2023-04-01T15:50:20;11.20;1.00
3794;DHT22;1912;51.358;12.282;2023-04-01T15:53:37;11.30;1.00
3794;DHT22;1912;51.358;12.282;2023-04-01T15:56:36;11.30;1.00
3794;DHT22;1912;51.358;12.282;2023-04-01T15:59:38;11.30;1.00
3794;DHT22;1912;51.358;12.282;2023-04-01T16:02:42;11.20;1.00
3794;DHT22;1912;51.358;12.282;2023-04-01T16:05:26;11.20;1.00
3794;DHT22;1912;51.358;12.282;2023-04-01T16:13:46;11.20;1.00
3794;DHT22;1912;51.358;12.282;2023-04-01T16:16:41;11.30;1.00
3794;DHT22;1912;51.358;12.282;2023-04-01T16:19:45;11.20;1.00
3794;DHT22;1912;51.358;12.282;2023-04-01T16:22:23;11.10;1.00
3794;DHT22;1912;51.358;12.282;2023-04-01T16:33:55;11.00;1.00
3794;DHT22;1912;51.358;12.282;2023-04-01T16:39:52;11.00;1.00
3794;DHT22;1912;51.358;12.282;2023-04-01T16:45:42;11.00;1.00
3794;DHT22;1912;51.358;12.282;2023-04-01T16:48:15;10.90;1.00
3794;DHT22;1912;51.358;12.282;2023-04-01T16:50:55;11.00;1.00
3794;DHT22;1912;51.358;12.282;2023-04-01T16:53:41;11.00;1.00
3794;DHT22;1912;51.358;12.282;2023-04-01T16:59:13;11.30;1.00
3794;DHT22;1912;51.358;12.282;2023-04-01T17:04:37;11.30;1.00
3794;DHT22;1912;51.358;12.282;2023-04-01T17:07:46;11.30;1.00
3794;DHT22;1912;51.358;12.282;2023-04-01T17:11:09;11.20;1.00
3794;DHT22;1912;51.358;12.282;2023-04-01T17:13:33;11.10;1.00
3794;DHT22;1912;51.358;12.282;2023-04-01T17:21:50;11.00;1.00
3794;DHT22;1912;51.358;12.282;2023-04-01T17:24:54;10.90;1.00
3794;DHT22;1912;51.358;12.282;2023-04-01T17:28:28;10.90;1.00
3794;DHT22;1912;51.358;12.282;2023-04-01T17:31:10;10.80;1.00
3794;DHT22;1912;51.358;12.282;2023-04-01T17:34:01;10.70;1.00
3794;DHT22;1912;51.358;12.282;2023-04-01T17:39:46;10.60;1.00
3794;DHT22;1912;51.358;12.282;2023-04-01T17:45:26;10.60;1.00
3794;DHT22;1912;51.358;12.282;2023-04-01T17:51:17;10.50;1.00
3794;DHT22;1912;51.358;12.282;2023-04-01T18:05:44;10.40;1.00
3794;DHT22;1912;51.358;12.282;2023-04-01T18:08:50;10.30;1.00
3794;DHT22;1912;51.358;12.282;2023-04-01T18:12:04;10.20;1.00
3794;DHT22;1912;51.358;12.282;2023-04-01T18:18:31;10.10;1.00
3794;DHT22;1912;51.358;12.282;2023-04-01T18:21:36;10.10;1.00
3794;DHT22;1912;51.358;12.282;2023-04-01T18:27:06;10.00;1.00
3794;DHT22;1912;51.358;12.282;2023-04-01T18:30:14;10.00;1.00
3794;DHT22;1912;51.358;12.282;2023-04-01T18:36:19;9.90;1.00
3794;DHT22;1912;51.358;12.282;2023-04-01T18:38:56;9.90;1.00
3794;DHT22;1912;51.358;12.282;2023-04-01T18:45:03;9.80;1.00
3794;DHT22;1912;51.358;12.282;2023-04-01T18:47:47;9.80;1.00
3794;DHT22;1912;51.358;12.282;2023-04-01T18:50:53;9.80;1.00
3794;DHT22;1912;51.358;12.282;2023-04-01T18:53:30;9.70;1.00
3794;DHT22;1912;51.358;12.282;2023-04-01T18:56:05;9.70;1.00
3794;DHT22;1912;51.358;12.282;2023-04-01T18:58:46;9.70;1.00
3794;DHT22;1912;51.358;12.282;2023-04-01T19:06:59;9.60;1.00
3794;DHT22;1912;51.358;12.282;2023-04-01T19:09:49;9.60;1.00
3794;DHT22;1912;51.358;12.282;2023-04-01T19:20:47;9.40;1.00
3794;DHT22;1912;51.358;12.282;2023-04-01T19:26:27;9.30;1.00
3794;DHT22;1912;51.358;12.282;2023-04-01T19:36:29;9.00;1.00
3794;DHT22;1912;51.358;12.282;2023-04-01T19:38:39;8.90;1.00
3794;DHT22;1912;51.358;12.282;2023-04-01T19:55:48;8.50;1.00
3794;DHT22;1912;51.358;12.282;2023-04-01T20:01:37;8.40;1.00
3794;DHT22;1912;51.358;12.282;2023-04-01T20:04:13;8.40;1.00
3794;DHT22;1912;51.358;12.282;2023-04-01T20:07:13;8.40;1.00
3794;DHT22;1912;51.358;12.282;2023-04-01T20:09:50;8.40;1.00
3794;DHT22;1912;51.358;12.282;2023-04-01T20:12:52;8.30;1.00
3794;DHT22;1912;51.358;12.282;2023-04-01T20:18:13;8.30;1.00
3794;DHT22;1912;51.358;12.282;2023-04-01T20:20:53;8.20;1.00
3794;DHT22;1912;51.358;12.282;2023-04-01T20:23:42;8.20;1.00
3794;DHT22;1912;51.358;12.282;2023-04-01T20:26:12;8.10;1.00
3794;DHT22;1912;51.358;12.282;2023-04-01T20:28:42;8.00;1.00
3794;DHT22;1912;51.358;12.282;2023-04-01T20:31:44;7.90;1.00
3794;DHT22;1912;51.358;12.282;2023-04-01T20:37:51;7.90;1.00
3794;DHT22;1912;51.358;12.282;2023-04-01T20:40:47;7.80;1.00
3794;DHT22;1912;51.358;12.282;2023-04-01T20:46:27;7.80;1.00
3794;DHT22;1912;51.358;12.282;2023-04-01T20:49:38;7.80;1.00
3794;DHT22;1912;51.358;12.282;2023-04-01T20:52:23;7.80;1.00
3794;DHT22;1912;51.358;12.282;2023-04-01T20:55:19;7.70;1.00
3794;DHT22;1912;51.358;12.282;2023-04-01T20:58:06;7.70;1.00
3794;DHT22;1912;51.358;12.282;2023-04-01T21:00:52;7.70;1.00
3794;DHT22;1912;51.358;12.282;2023-04-01T21:06:45;7.60;1.00
3794;DHT22;1912;51.358;12.282;2023-04-01T21:14:54;7.50;1.00
3794;DHT22;1912;51.358;12.282;2023-04-01T21:38:16;7.20;1.00
3794;DHT22;1912;51.358;12.282;2023-04-01T21:41:12;7.10;1.00
3794;DHT22;1912;51.358;12.282;2023-04-01T21:52:48;6.80;1.00
3794;DHT22;1912;51.358;12.282;2023-04-01T21:55:55;6.70;1.00
3794;DHT22;1912;51.358;12.282;2023-04-01T21:59:13;6.70;1.00
3794;DHT22;1912;51.358;12.282;2023-04-01T22:02:12;6.70;1.00
3794;DHT22;1912;51.358;12.282;2023-04-01T22:05:10;6.60;1.00
3794;DHT22;1912;51.358;12.282;2023-04-01T22:07:47;6.50;1.00
3794;DHT22;1912;51.358;12.282;2023-04-01T22:10:44;6.40;1.00
3794;DHT22;1912;51.358;12.282;2023-04-01T22:16:32;6.40;1.00
3794;DHT22;1912;51.358;12.282;2023-04-01T22:19:35;6.30;1.00
3794;DHT22;1912;51.358;12.282;2023-04-01T22:22:27;6.20;1.00
3794;DHT22;1912;51.358;12.282;2023-04-01T22:25:16;6.20;1.00
3794;DHT22;1912;51.358;12.282;2023-04-01T22:30:23;6.20;1.00
3794;DHT22;1912;51.358;12.282;2023-04-01T22:33:05;6.10;1.00
3794;DHT22;1912;51.358;12.282;2023-04-01T22:35:45;6.00;1.00
3794;DHT22;1912;51.358;12.282;2023-04-01T22:41:04;6.00;1.00
3794;DHT22;1912;51.358;12.282;2023-04-01T22:43:42;5.90;1.00
3794;DHT22;1912;51.358;12.282;2023-04-01T22:49:15;5.90;1.00
3794;DHT22;1912;51.358;12.282;2023-04-01T22:52:02;5.80;1.00
3794;DHT22;1912;51.358;12.282;2023-04-01T22:57:04;5.80;1.00
3794;DHT22;1912;51.358;12.282;2023-04-01T22:59:45;5.80;1.00
3794;DHT22;1912;51.358;12.282;2023-04-01T23:02:21;5.70;1.00
3794;DHT22;1912;51.358;12.282;2023-04-01T23:04:55;5.70;1.00
3794;DHT22;1912;51.358;12.282;2023-04-01T23:07:57;5.60;1.00
3794;DHT22;1912;51.358;12.282;2023-04-01T23:10:54;5.60;1.00
3794;DHT22;1912;51.358;12.282;2023-04-01T23:13:35;5.50;1.00
3794;DHT22;1912;51.358;12.282;2023-04-01T23:16:04;5.50;1.00
3794;DHT22;1912;51.358;12.282;2023-04-01T23:18:45;5.40;1.00
3794;DHT22;1912;51.358;12.282;2023-04-01T23:21:18;5.40;1.00
3794;DHT22;1912;51.358;12.282;2023-04-01T23:26:55;5.30;1.00
3794;DHT22;1912;51.358;12.282;2023-04-01T23:29:43;5.30;1.00
3794;DHT22;1912;51.358;12.282;2023-04-01T23:32:17;5.30;1.00
3794;DHT22;1912;51.358;12.282;2023-04-01T23:34:52;5.30;1.00
3794;DHT22;1912;51.358;12.282;2023-04-01T23:37:20;5.20;1.00
